createdAt,value
2022-11-27T00:01:34.313Z,25.33
2022-11-27T00:04:02.540Z,27.33
2022-11-27T00:06:31.484Z,26.58
2022-11-27T00:09:01.260Z,25.38
2022-11-27T00:11:30.738Z,25.73
2022-11-27T00:13:59.073Z,26.08
2022-11-27T00:16:28.439Z,26.90
2022-11-27T00:18:56.571Z,25.25
2022-11-27T00:21:30.799Z,29.02
2022-11-27T00:24:00.872Z,27.60
2022-11-27T00:26:35.916Z,26.10
2022-11-27T00:29:06.163Z,27.00
2022-11-27T00:31:36.061Z,27.60
2022-11-27T00:34:06.717Z,26.80
2022-11-27T00:36:35.727Z,25.02
2022-11-27T00:39:04.749Z,26.50
2022-11-27T00:41:36.204Z,29.80
2022-11-27T00:44:07.786Z,25.38
2022-11-27T00:46:39.086Z,29.63
2022-11-27T00:51:36.206Z,27.08
2022-11-27T00:54:04.615Z,28.88
2022-11-27T00:56:36.032Z,29.38
2022-11-27T00:59:05.043Z,30.02
2022-11-27T01:01:38.358Z,29.80
2022-11-27T01:04:07.928Z,31.70
2022-11-27T01:06:36.345Z,29.85
2022-11-27T01:09:05.450Z,29.75
2022-11-27T01:11:35.296Z,32.50
2022-11-27T01:14:06.841Z,34.92
2022-11-27T01:16:36.395Z,31.27
2022-11-27T01:19:06.149Z,30.52
2022-11-27T01:21:35.783Z,27.80
2022-11-27T01:24:05.077Z,28.00
2022-11-27T01:26:33.239Z,25.38
2022-11-27T01:29:01.403Z,24.58
2022-11-27T01:31:32.362Z,22.27
2022-11-27T01:34:09.431Z,20.42
2022-11-27T01:36:37.710Z,21.23
2022-11-27T01:39:06.441Z,20.90
2022-11-27T01:41:41.004Z,22.20
2022-11-27T01:44:27.391Z,20.10
2022-11-27T01:47:04.958Z,20.48
2022-11-27T01:49:44.082Z,19.23
2022-11-27T01:52:18.162Z,20.48
2022-11-27T01:55:00.930Z,21.30
2022-11-27T01:57:50.930Z,19.75
2022-11-27T02:00:19.756Z,20.08
2022-11-27T02:02:48.154Z,20.35
2022-11-27T02:05:21.593Z,20.27
2022-11-27T02:07:50.190Z,17.80
2022-11-27T02:10:18.772Z,18.48
2022-11-27T02:13:05.042Z,18.38
2022-11-27T02:15:32.933Z,18.58
2022-11-27T02:18:13.061Z,16.67
2022-11-27T02:20:57.148Z,17.08
2022-11-27T02:23:40.606Z,19.67
2022-11-27T02:26:30.468Z,18.10
2022-11-27T02:29:05.265Z,18.35
2022-11-27T02:31:46.614Z,17.65
2022-11-27T02:34:29.848Z,16.85
2022-11-27T02:37:05.445Z,16.92
2022-11-27T02:40:04.309Z,16.58
2022-11-27T02:42:40.704Z,16.40
2022-11-27T02:45:18.829Z,16.90
2022-11-27T02:47:50.505Z,15.30
2022-11-27T02:50:22.825Z,15.68
2022-11-27T02:52:54.300Z,16.20
2022-11-27T02:55:26.181Z,15.20
2022-11-27T02:57:56.981Z,14.90
2022-11-27T03:00:25.297Z,14.43
2022-11-27T03:03:00.516Z,14.82
2022-11-27T03:05:33.823Z,15.93
2022-11-27T03:08:24.156Z,15.52
2022-11-27T03:11:13.480Z,15.70
2022-11-27T03:13:45.742Z,16.25
2022-11-27T03:16:27.657Z,15.52
2022-11-27T03:19:20.888Z,16.50
2022-11-27T03:22:06.786Z,16.35
2022-11-27T03:24:38.125Z,18.55
2022-11-27T03:29:54.621Z,16.52
2022-11-27T03:32:23.164Z,15.65
2022-11-27T03:34:51.305Z,16.42
2022-11-27T03:37:19.402Z,18.88
2022-11-27T03:39:47.291Z,18.80
2022-11-27T03:42:37.085Z,18.85
2022-11-27T03:45:17.407Z,18.13
2022-11-27T03:48:03.377Z,17.75
2022-11-27T03:50:55.852Z,15.50
2022-11-27T03:53:42.525Z,17.13
2022-11-27T03:56:19.315Z,14.98
2022-11-27T03:59:01.073Z,16.60
2022-11-27T04:01:30.449Z,15.82
2022-11-27T04:03:58.572Z,17.00
2022-11-27T04:06:26.608Z,14.40
2022-11-27T04:08:54.496Z,18.85
2022-11-27T04:11:22.420Z,14.90
2022-11-27T04:13:50.336Z,16.27
2022-11-27T04:16:18.279Z,15.15
2022-11-27T04:18:46.341Z,14.90
2022-11-27T04:21:14.412Z,14.70
2022-11-27T04:23:42.405Z,14.18
2022-11-27T04:26:10.469Z,15.13
2022-11-27T04:28:38.449Z,13.88
2022-11-27T04:31:06.577Z,15.73
2022-11-27T04:33:34.757Z,16.13
2022-11-27T04:36:02.736Z,15.27
2022-11-27T04:38:30.617Z,13.77
2022-11-27T04:40:59.146Z,14.02
2022-11-27T04:43:27.038Z,15.98
2022-11-27T04:45:54.877Z,15.52
2022-11-27T04:48:22.774Z,15.18
2022-11-27T04:50:50.694Z,20.05
2022-11-27T04:53:18.536Z,20.35
2022-11-27T04:55:46.468Z,17.83
2022-11-27T04:58:14.389Z,15.18
2022-11-27T05:00:42.406Z,15.52
2022-11-27T05:03:10.348Z,15.38
2022-11-27T05:05:38.329Z,20.00
2022-11-27T05:08:06.308Z,15.98
2022-11-27T05:10:34.258Z,14.55
2022-11-27T05:13:02.122Z,15.60
2022-11-27T05:15:29.989Z,30.85
2022-11-27T05:17:57.830Z,16.92
2022-11-27T05:20:25.744Z,16.58
2022-11-27T05:22:53.648Z,15.48
2022-11-27T05:25:21.540Z,16.02
2022-11-27T05:27:49.967Z,15.05
2022-11-27T05:30:17.854Z,18.63
2022-11-27T05:32:45.765Z,18.38
2022-11-27T05:35:13.701Z,16.15
2022-11-27T05:37:41.629Z,18.08
2022-11-27T05:40:09.968Z,16.63
2022-11-27T05:42:37.892Z,17.63
2022-11-27T05:45:06.244Z,16.17
2022-11-27T05:47:34.180Z,16.25
2022-11-27T05:50:02.041Z,17.65
2022-11-27T05:52:29.953Z,17.50
2022-11-27T05:54:57.831Z,17.60
2022-11-27T05:57:25.769Z,18.30
2022-11-27T05:59:53.784Z,16.73
2022-11-27T06:02:26.423Z,18.00
2022-11-27T06:04:59.249Z,17.83
2022-11-27T06:07:27.283Z,15.98
2022-11-27T06:09:56.120Z,15.30
2022-11-27T06:12:26.536Z,13.43
2022-11-27T06:14:54.505Z,13.13
2022-11-27T06:17:22.380Z,14.13
2022-11-27T06:19:50.230Z,13.25
2022-11-27T06:22:18.106Z,13.23
2022-11-27T06:24:45.994Z,12.68
2022-11-27T06:27:13.936Z,12.48
2022-11-27T06:29:41.908Z,11.90
2022-11-27T06:32:09.852Z,12.80
2022-11-27T06:34:38.004Z,12.80
2022-11-27T06:37:10.403Z,12.65
2022-11-27T06:39:40.944Z,13.20
2022-11-27T06:42:08.936Z,11.55
2022-11-27T06:44:36.896Z,11.98
2022-11-27T06:47:04.779Z,11.48
2022-11-27T06:49:32.773Z,12.45
2022-11-27T06:52:01.032Z,12.55
2022-11-27T06:54:29.063Z,10.90
2022-11-27T06:56:56.984Z,13.18
2022-11-27T06:59:24.979Z,13.75
2022-11-27T07:01:52.927Z,13.52
2022-11-27T07:04:21.114Z,13.32
2022-11-27T07:06:49.092Z,12.95
2022-11-27T07:09:17.128Z,14.50
2022-11-27T07:11:44.987Z,13.82
2022-11-27T07:14:12.860Z,14.15
2022-11-27T07:16:40.835Z,12.55
2022-11-27T07:19:09.509Z,14.15
2022-11-27T07:21:38.506Z,12.88
2022-11-27T07:24:06.937Z,13.15
2022-11-27T07:26:34.833Z,14.00
2022-11-27T07:29:02.734Z,12.73
2022-11-27T07:31:31.685Z,13.02
2022-11-27T07:33:59.991Z,12.98
2022-11-27T07:36:30.589Z,12.52
2022-11-27T07:38:59.257Z,12.48
2022-11-27T07:41:33.551Z,13.05
2022-11-27T07:44:01.840Z,13.93
2022-11-27T07:46:31.233Z,13.32
2022-11-27T07:49:01.453Z,13.52
2022-11-27T07:51:29.856Z,11.82
2022-11-27T07:53:57.785Z,12.75
2022-11-27T07:56:25.698Z,13.70
2022-11-27T07:58:53.616Z,13.35
2022-11-27T08:01:23.323Z,17.08
2022-11-27T08:03:54.981Z,16.17
2022-11-27T08:06:25.524Z,14.60
2022-11-27T08:08:54.414Z,15.00
2022-11-27T08:11:28.064Z,14.80
2022-11-27T08:14:08.973Z,15.90
2022-11-27T08:16:37.382Z,15.20
2022-11-27T08:19:05.376Z,15.32
2022-11-27T08:21:33.948Z,15.68
2022-11-27T08:24:01.868Z,16.60
2022-11-27T08:26:30.100Z,16.33
2022-11-27T08:28:58.861Z,16.95
2022-11-27T08:31:27.339Z,16.10
2022-11-27T08:33:55.297Z,15.48
2022-11-27T08:36:25.524Z,17.67
2022-11-27T08:38:53.957Z,17.95
2022-11-27T08:41:22.398Z,17.38
2022-11-27T08:43:50.333Z,15.77
2022-11-27T08:46:18.359Z,16.02
2022-11-27T08:48:46.332Z,15.20
2022-11-27T08:51:16.339Z,13.38
2022-11-27T08:53:46.669Z,13.05
2022-11-27T08:56:18.672Z,13.07
2022-11-27T08:58:47.104Z,11.20
2022-11-27T09:01:18.956Z,12.93
2022-11-27T09:03:49.975Z,11.95
2022-11-27T09:06:24.833Z,12.07
2022-11-27T09:08:53.231Z,11.65
2022-11-27T09:11:21.662Z,11.52
2022-11-27T09:13:50.054Z,13.57
2022-11-27T09:16:19.954Z,12.80
2022-11-27T09:18:50.481Z,12.82
2022-11-27T09:21:20.324Z,12.60
2022-11-27T09:23:48.417Z,11.95
2022-11-27T09:26:18.493Z,12.95
2022-11-27T09:28:46.991Z,12.13
2022-11-27T09:31:16.223Z,11.60
2022-11-27T09:33:45.316Z,11.80
2022-11-27T09:36:19.421Z,11.93
2022-11-27T09:38:47.743Z,11.48
2022-11-27T09:41:24.873Z,11.40
2022-11-27T09:44:00.458Z,10.13
2022-11-27T09:46:36.953Z,10.35
2022-11-27T09:49:16.582Z,10.55
2022-11-27T09:52:03.186Z,9.77
2022-11-27T09:54:42.408Z,9.77
2022-11-27T09:57:17.118Z,10.05
2022-11-27T09:59:50.544Z,11.70
2022-11-27T10:02:25.199Z,9.38
2022-11-27T10:07:48.888Z,10.25
2022-11-27T10:10:25.687Z,9.85
2022-11-27T10:13:15.112Z,9.13
2022-11-27T10:16:21.134Z,10.35
2022-11-27T10:19:29.587Z,10.52
2022-11-27T10:22:19.636Z,10.20
2022-11-27T10:24:59.618Z,11.77
2022-11-27T10:27:47.775Z,10.50
2022-11-27T10:30:21.264Z,10.13
2022-11-27T10:32:55.722Z,9.70
2022-11-27T10:35:27.034Z,9.98
2022-11-27T10:38:11.311Z,8.80
2022-11-27T10:41:18.632Z,10.63
2022-11-27T10:44:04.434Z,10.13
2022-11-27T10:46:38.116Z,10.07
2022-11-27T10:49:09.214Z,9.93
2022-11-27T10:51:41.613Z,8.55
2022-11-27T10:54:22.206Z,9.30
2022-11-27T10:57:28.404Z,8.50
2022-11-27T11:00:15.630Z,10.38
2022-11-27T11:02:45.446Z,9.73
2022-11-27T11:08:21.845Z,9.95
2022-11-27T11:11:00.944Z,10.43
2022-11-27T11:13:51.893Z,10.60
2022-11-27T11:16:25.003Z,9.20
2022-11-27T11:18:56.424Z,11.98
2022-11-27T11:21:32.920Z,9.90
2022-11-27T11:24:13.889Z,9.52
2022-11-27T11:26:47.212Z,9.35
2022-11-27T11:29:28.236Z,9.57
2022-11-27T11:31:57.976Z,9.88
2022-11-27T11:34:32.901Z,9.38
2022-11-27T11:37:23.621Z,10.23
2022-11-27T11:40:24.948Z,11.07
2022-11-27T11:43:01.837Z,9.38
2022-11-27T11:48:28.386Z,9.52
2022-11-27T11:51:18.775Z,10.00
2022-11-27T11:54:22.034Z,9.35
2022-11-27T11:56:53.613Z,10.60
2022-11-27T11:59:43.725Z,9.70
2022-11-27T12:05:25.232Z,9.57
2022-11-27T12:08:23.839Z,9.25
2022-11-27T12:11:11.167Z,8.88
2022-11-27T12:14:03.275Z,9.25
2022-11-27T12:16:57.145Z,9.40
2022-11-27T12:19:42.663Z,9.10
2022-11-27T12:22:38.767Z,8.93
2022-11-27T12:25:21.857Z,9.40
2022-11-27T12:28:14.667Z,9.40
2022-11-27T12:31:04.182Z,9.48
2022-11-27T12:33:40.821Z,9.10
2022-11-27T12:36:49.080Z,9.13
2022-11-27T12:39:44.375Z,9.20
2022-11-27T12:42:44.801Z,9.13
2022-11-27T12:45:34.916Z,8.25
2022-11-27T12:48:18.303Z,8.98
2022-11-27T12:50:57.957Z,9.65
2022-11-27T12:53:37.729Z,9.07
2022-11-27T12:56:22.153Z,9.00
2022-11-27T12:58:57.221Z,8.45
2022-11-27T13:01:30.331Z,8.07
2022-11-27T13:04:26.102Z,8.80
2022-11-27T13:07:11.464Z,8.20
2022-11-27T13:10:19.649Z,7.40
2022-11-27T13:13:02.064Z,7.88
2022-11-27T13:15:45.118Z,8.02
2022-11-27T13:18:34.737Z,8.05
2022-11-27T13:21:13.306Z,8.20
2022-11-27T13:23:41.253Z,7.93
2022-11-27T13:26:26.349Z,8.40
2022-11-27T13:29:01.868Z,8.57
2022-11-27T13:31:36.436Z,8.45
2022-11-27T13:34:08.785Z,9.07
2022-11-27T13:36:42.749Z,8.15
2022-11-27T13:39:25.313Z,8.80
2022-11-27T13:42:07.855Z,8.90
2022-11-27T13:44:41.209Z,8.23
2022-11-27T13:47:15.036Z,8.65
2022-11-27T13:49:44.518Z,8.60
2022-11-27T13:52:21.257Z,8.18
2022-11-27T13:54:57.633Z,9.18
2022-11-27T13:57:26.567Z,8.35
2022-11-27T14:00:05.535Z,8.20
2022-11-27T14:02:53.000Z,9.10
2022-11-27T14:05:34.598Z,8.70
2022-11-27T14:08:02.750Z,8.73
2022-11-27T14:10:33.893Z,8.57
2022-11-27T14:13:04.727Z,9.02
2022-11-27T14:15:36.408Z,8.95
2022-11-27T14:18:19.632Z,9.65
2022-11-27T14:20:52.873Z,10.52
2022-11-27T14:23:37.288Z,11.27
2022-11-27T14:26:15.351Z,9.82
2022-11-27T14:28:51.737Z,10.98
2022-11-27T14:31:30.880Z,9.45
2022-11-27T14:34:15.287Z,9.43
2022-11-27T14:36:44.896Z,9.13
2022-11-27T14:39:24.443Z,8.40
2022-11-27T14:42:30.069Z,8.35
2022-11-27T14:45:11.857Z,9.27
2022-11-27T14:47:49.228Z,9.13
2022-11-27T14:50:18.538Z,8.77
2022-11-27T14:52:53.070Z,9.63
2022-11-27T14:55:34.286Z,9.75
2022-11-27T14:58:02.833Z,8.93
2022-11-27T15:00:32.551Z,8.77
2022-11-27T15:03:11.206Z,9.27
2022-11-27T15:05:40.176Z,9.18
2022-11-27T15:08:10.612Z,9.43
2022-11-27T15:10:41.489Z,9.03
2022-11-27T15:13:23.842Z,9.00
2022-11-27T15:16:24.265Z,9.18
2022-11-27T15:18:58.001Z,9.07
2022-11-27T15:21:26.920Z,8.25
2022-11-27T15:23:56.742Z,9.63
2022-11-27T15:26:36.471Z,9.48
2022-11-27T15:29:05.041Z,8.90
2022-11-27T15:31:40.580Z,9.05
2022-11-27T15:34:17.422Z,8.88
2022-11-27T15:36:49.765Z,9.52
2022-11-27T15:39:21.654Z,11.27
2022-11-27T15:41:54.908Z,9.50
2022-11-27T15:44:24.673Z,8.68
2022-11-27T15:46:56.174Z,8.85
2022-11-27T15:49:27.538Z,8.48
2022-11-27T15:54:24.822Z,7.25
2022-11-27T15:56:53.001Z,8.15
2022-11-27T15:59:21.733Z,7.63
2022-11-27T16:01:50.570Z,7.85
2022-11-27T16:04:18.820Z,9.35
2022-11-27T16:06:46.710Z,8.93
2022-11-27T16:09:14.639Z,9.38
2022-11-27T16:11:42.864Z,9.18
2022-11-27T16:14:10.704Z,8.73
2022-11-27T16:16:38.723Z,8.80
2022-11-27T16:19:07.521Z,8.38
2022-11-27T16:21:36.718Z,8.25
2022-11-27T16:24:07.505Z,8.50
2022-11-27T16:26:35.936Z,8.70
2022-11-27T16:29:03.883Z,8.90
2022-11-27T16:31:32.309Z,9.02
2022-11-27T16:34:02.531Z,9.18
2022-11-27T16:36:30.706Z,9.13
2022-11-27T16:38:59.076Z,8.52
2022-11-27T16:41:27.317Z,8.95
2022-11-27T16:43:57.723Z,9.50
2022-11-27T16:46:29.054Z,9.40
2022-11-27T16:48:59.864Z,9.15
2022-11-27T16:51:33.653Z,8.57
2022-11-27T16:54:04.384Z,8.90
2022-11-27T16:56:33.979Z,9.77
2022-11-27T16:59:14.256Z,8.50
2022-11-27T17:01:43.748Z,9.02
2022-11-27T17:04:19.391Z,9.43
2022-11-27T17:06:48.749Z,9.13
2022-11-27T17:09:17.381Z,9.68
2022-11-27T17:11:49.651Z,9.98
2022-11-27T17:14:21.168Z,10.15
2022-11-27T17:16:50.313Z,9.43
2022-11-27T17:19:19.763Z,10.82
2022-11-27T17:21:47.972Z,10.15
2022-11-27T17:24:17.318Z,9.88
2022-11-27T17:26:47.154Z,10.82
2022-11-27T17:29:17.225Z,10.57
2022-11-27T17:31:45.465Z,10.80
2022-11-27T17:34:16.897Z,10.68
2022-11-27T17:36:46.259Z,11.77
2022-11-27T17:39:16.032Z,11.73
2022-11-27T17:41:47.713Z,10.32
2022-11-27T17:44:15.756Z,10.68
2022-11-27T17:46:49.081Z,9.85
2022-11-27T17:49:20.467Z,9.63
2022-11-27T17:51:52.828Z,10.70
2022-11-27T17:56:52.344Z,9.77
2022-11-27T18:01:52.387Z,10.95
2022-11-27T18:04:21.110Z,10.73
2022-11-27T18:06:49.415Z,9.38
2022-11-27T18:09:17.783Z,10.70
2022-11-27T18:11:46.136Z,10.77
2022-11-27T18:14:14.716Z,10.73
2022-11-27T18:16:42.983Z,10.35
2022-11-27T18:19:12.340Z,9.70
2022-11-27T18:21:40.889Z,10.43
2022-11-27T18:24:25.316Z,10.80
2022-11-27T18:27:12.518Z,9.90
2022-11-27T18:29:45.010Z,9.88
2022-11-27T18:32:21.625Z,11.10
2022-11-27T18:34:59.557Z,11.00
2022-11-27T18:37:28.856Z,10.50
2022-11-27T18:40:03.606Z,11.02
2022-11-27T18:42:47.350Z,10.75
2022-11-27T18:45:32.371Z,11.77
2022-11-27T18:48:03.723Z,12.15
2022-11-27T18:50:45.815Z,11.13
2022-11-27T18:53:14.138Z,11.80
2022-11-27T18:55:42.453Z,11.70
2022-11-27T18:58:14.059Z,11.55
2022-11-27T19:00:43.080Z,11.32
2022-11-27T19:03:11.038Z,11.38
2022-11-27T19:05:38.975Z,12.18
2022-11-27T19:08:10.035Z,12.48
2022-11-27T19:13:06.709Z,11.68
2022-11-27T19:15:35.575Z,12.50
2022-11-27T19:18:04.583Z,12.52
2022-11-27T19:20:34.567Z,11.90
2022-11-27T19:23:02.985Z,12.77
2022-11-27T19:25:38.721Z,12.77
2022-11-27T19:28:09.754Z,12.73
2022-11-27T19:30:41.013Z,13.38
2022-11-27T19:35:44.021Z,12.13
2022-11-27T19:38:12.593Z,11.95
2022-11-27T19:40:42.749Z,11.65
2022-11-27T19:43:11.171Z,11.68
2022-11-27T19:45:39.564Z,12.68
2022-11-27T19:48:08.594Z,12.13
2022-11-27T19:50:48.523Z,13.32
2022-11-27T19:53:20.420Z,12.32
2022-11-27T19:55:58.494Z,12.13
2022-11-27T19:58:29.519Z,11.45
2022-11-27T20:01:22.588Z,11.95
2022-11-27T20:03:54.695Z,11.17
2022-11-27T20:06:26.727Z,10.82
2022-11-27T20:11:45.138Z,12.77
2022-11-27T20:14:16.317Z,12.05
2022-11-27T20:16:45.420Z,11.23
2022-11-27T20:19:13.834Z,12.93
2022-11-27T20:21:43.690Z,11.40
2022-11-27T20:24:14.220Z,11.70
2022-11-27T20:26:43.659Z,11.65
2022-11-27T20:29:13.939Z,11.93
2022-11-27T20:31:46.019Z,13.00
2022-11-27T20:34:21.500Z,12.60
2022-11-27T20:37:04.152Z,13.05
2022-11-27T20:39:34.451Z,13.73
2022-11-27T20:42:08.911Z,12.18
2022-11-27T20:44:47.575Z,12.27
2022-11-27T20:49:59.187Z,12.73
2022-11-27T20:52:28.165Z,11.60
2022-11-27T20:55:11.815Z,11.85
2022-11-27T20:57:42.850Z,12.05
2022-11-27T21:00:12.944Z,12.63
2022-11-27T21:02:50.986Z,12.90
2022-11-27T21:05:29.285Z,12.23
2022-11-27T21:07:58.662Z,11.80
2022-11-27T21:10:26.778Z,12.50
2022-11-27T21:12:54.907Z,12.38
2022-11-27T21:15:23.438Z,12.85
2022-11-27T21:18:04.220Z,12.40
2022-11-27T21:20:35.259Z,12.63
2022-11-27T21:23:03.525Z,13.00
2022-11-27T21:25:32.959Z,12.65
2022-11-27T21:28:01.526Z,13.00
2022-11-27T21:30:30.938Z,13.65
2022-11-27T21:33:02.360Z,12.70
2022-11-27T21:38:23.050Z,11.50
2022-11-27T21:40:52.623Z,13.02
2022-11-27T21:43:28.609Z,13.50
2022-11-27T21:45:57.540Z,13.30
2022-11-27T21:48:32.245Z,13.05
2022-11-27T21:51:05.502Z,13.63
2022-11-27T21:53:35.842Z,13.57
2022-11-27T21:56:06.022Z,13.68
2022-11-27T21:58:35.797Z,13.95
2022-11-27T22:01:06.247Z,14.02
2022-11-27T22:03:43.353Z,13.77
2022-11-27T22:06:14.278Z,13.77
2022-11-27T22:08:44.516Z,13.20
2022-11-27T22:11:19.605Z,12.02
2022-11-27T22:13:48.134Z,13.32
2022-11-27T22:16:21.563Z,13.85
2022-11-27T22:18:51.305Z,13.88
2022-11-27T22:21:28.343Z,14.25
2022-11-27T22:23:57.844Z,14.25
2022-11-27T22:26:26.713Z,13.77
2022-11-27T22:28:55.180Z,13.30
2022-11-27T22:31:32.441Z,14.27
2022-11-27T22:34:01.567Z,13.90
2022-11-27T22:36:33.658Z,13.50
2022-11-27T22:39:08.426Z,13.13
2022-11-27T22:41:39.295Z,13.55
2022-11-27T22:44:26.290Z,13.82
2022-11-27T22:46:55.925Z,13.82
2022-11-27T22:49:24.572Z,13.73
2022-11-27T22:51:53.731Z,14.43
2022-11-27T22:54:24.085Z,13.98
2022-11-27T22:56:59.140Z,14.43
2022-11-27T22:59:32.808Z,15.43
2022-11-27T23:02:04.047Z,14.10
2022-11-27T23:04:36.176Z,14.20
2022-11-27T23:07:05.523Z,14.57
2022-11-27T23:09:34.232Z,13.88
2022-11-27T23:12:08.949Z,14.30
2022-11-27T23:14:37.483Z,13.95
2022-11-27T23:17:07.872Z,14.13
2022-11-27T23:19:40.677Z,14.63
2022-11-27T23:22:10.827Z,15.18
2022-11-27T23:24:43.187Z,15.82
2022-11-27T23:27:12.029Z,15.73
2022-11-27T23:29:40.364Z,15.23
2022-11-27T23:32:08.882Z,16.35
2022-11-27T23:34:37.302Z,17.10
2022-11-27T23:37:05.717Z,16.63
2022-11-27T23:39:34.192Z,16.13
2022-11-27T23:42:02.333Z,16.55
2022-11-27T23:44:30.570Z,15.80
2022-11-27T23:46:58.820Z,16.83
2022-11-27T23:49:27.134Z,16.67
2022-11-27T23:51:55.377Z,16.42
2022-11-27T23:54:23.638Z,16.23
2022-11-27T23:56:55.396Z,17.10
2022-11-27T23:59:25.299Z,17.15
